sensor_id;sensor_type;location;lat;lon;timestamp;P1;durP1;ratioP1;P2;durP2;ratioP2
36315;SDS011;22343;50.820;2.666;2023-11-19T00:01:34;20.73;;;4.83;;
36315;SDS011;22343;50.820;2.666;2023-11-19T00:04:18;20.73;;;5.00;;
36315;SDS011;22343;50.820;2.666;2023-11-19T00:07:03;22.33;;;6.10;;
36315;SDS011;22343;50.820;2.666;2023-11-19T00:09:50;22.97;;;6.13;;
36315;SDS011;22343;50.820;2.666;2023-11-19T00:12:34;24.50;;;5.63;;
36315;SDS011;22343;50.820;2.666;2023-11-19T00:15:18;25.50;;;5.97;;
36315;SDS011;22343;50.820;2.666;2023-11-19T00:18:03;22.30;;;5.40;;
36315;SDS011;22343;50.820;2.666;2023-11-19T00:20:48;24.97;;;6.47;;
36315;SDS011;22343;50.820;2.666;2023-11-19T00:23:32;21.57;;;5.40;;
36315;SDS011;22343;50.820;2.666;2023-11-19T00:26:17;22.77;;;6.20;;
36315;SDS011;22343;50.820;2.666;2023-11-19T00:29:01;20.60;;;5.27;;
36315;SDS011;22343;50.820;2.666;2023-11-19T00:31:46;21.43;;;5.93;;
36315;SDS011;22343;50.820;2.666;2023-11-19T00:34:30;23.40;;;5.90;;
36315;SDS011;22343;50.820;2.666;2023-11-19T00:37:15;22.40;;;5.50;;
36315;SDS011;22343;50.820;2.666;2023-11-19T00:39:59;19.53;;;5.20;;
36315;SDS011;22343;50.820;2.666;2023-11-19T00:42:44;24.10;;;5.57;;
36315;SDS011;22343;50.820;2.666;2023-11-19T00:45:29;25.20;;;5.93;;
36315;SDS011;22343;50.820;2.666;2023-11-19T00:48:13;21.90;;;5.63;;
36315;SDS011;22343;50.820;2.666;2023-11-19T00:50:57;21.17;;;6.03;;
36315;SDS011;22343;50.820;2.666;2023-11-19T00:53:41;25.03;;;5.87;;
36315;SDS011;22343;50.820;2.666;2023-11-19T00:56:26;27.40;;;5.93;;
36315;SDS011;22343;50.820;2.666;2023-11-19T00:59:12;27.03;;;5.63;;
36315;SDS011;22343;50.820;2.666;2023-11-19T01:01:58;23.47;;;5.43;;
36315;SDS011;22343;50.820;2.666;2023-11-19T01:04:46;25.43;;;5.63;;
36315;SDS011;22343;50.820;2.666;2023-11-19T01:07:31;29.83;;;6.10;;
36315;SDS011;22343;50.820;2.666;2023-11-19T01:10:15;30.10;;;6.40;;
36315;SDS011;22343;50.820;2.666;2023-11-19T01:13:00;26.67;;;6.00;;
36315;SDS011;22343;50.820;2.666;2023-11-19T01:15:44;24.80;;;6.17;;
36315;SDS011;22343;50.820;2.666;2023-11-19T01:18:28;26.47;;;5.90;;
36315;SDS011;22343;50.820;2.666;2023-11-19T01:21:13;26.50;;;5.60;;
36315;SDS011;22343;50.820;2.666;2023-11-19T01:23:58;28.90;;;6.90;;
36315;SDS011;22343;50.820;2.666;2023-11-19T01:26:43;26.57;;;6.43;;
36315;SDS011;22343;50.820;2.666;2023-11-19T01:29:31;27.13;;;6.23;;
36315;SDS011;22343;50.820;2.666;2023-11-19T01:32:15;26.27;;;6.50;;
36315;SDS011;22343;50.820;2.666;2023-11-19T01:35:00;21.40;;;5.97;;
36315;SDS011;22343;50.820;2.666;2023-11-19T01:37:44;26.43;;;6.07;;
36315;SDS011;22343;50.820;2.666;2023-11-19T01:40:29;21.90;;;5.70;;
36315;SDS011;22343;50.820;2.666;2023-11-19T01:43:30;30.03;;;6.50;;
36315;SDS011;22343;50.820;2.666;2023-11-19T01:46:16;25.00;;;6.00;;
36315;SDS011;22343;50.820;2.666;2023-11-19T01:49:00;27.13;;;5.63;;
36315;SDS011;22343;50.820;2.666;2023-11-19T01:51:46;24.33;;;5.87;;
36315;SDS011;22343;50.820;2.666;2023-11-19T01:54:31;24.37;;;5.57;;
36315;SDS011;22343;50.820;2.666;2023-11-19T01:57:17;23.87;;;5.50;;
36315;SDS011;22343;50.820;2.666;2023-11-19T02:00:01;24.50;;;5.83;;
36315;SDS011;22343;50.820;2.666;2023-11-19T02:02:47;23.80;;;6.07;;
36315;SDS011;22343;50.820;2.666;2023-11-19T02:05:32;25.57;;;5.93;;
36315;SDS011;22343;50.820;2.666;2023-11-19T02:08:17;23.77;;;6.13;;
36315;SDS011;22343;50.820;2.666;2023-11-19T02:11:01;30.30;;;6.40;;
36315;SDS011;22343;50.820;2.666;2023-11-19T02:13:46;23.00;;;5.60;;
36315;SDS011;22343;50.820;2.666;2023-11-19T02:16:31;27.30;;;6.23;;
36315;SDS011;22343;50.820;2.666;2023-11-19T02:19:15;21.27;;;5.63;;
36315;SDS011;22343;50.820;2.666;2023-11-19T02:21:59;22.43;;;5.83;;
36315;SDS011;22343;50.820;2.666;2023-11-19T02:24:45;22.77;;;5.83;;
36315;SDS011;22343;50.820;2.666;2023-11-19T02:27:51;25.67;;;5.90;;
36315;SDS011;22343;50.820;2.666;2023-11-19T02:30:39;23.50;;;6.00;;
36315;SDS011;22343;50.820;2.666;2023-11-19T02:33:24;26.40;;;5.80;;
36315;SDS011;22343;50.820;2.666;2023-11-19T02:36:08;20.93;;;5.10;;
36315;SDS011;22343;50.820;2.666;2023-11-19T02:38:53;27.93;;;6.03;;
36315;SDS011;22343;50.820;2.666;2023-11-19T02:41:38;27.60;;;6.07;;
36315;SDS011;22343;50.820;2.666;2023-11-19T02:44:23;24.67;;;5.67;;
36315;SDS011;22343;50.820;2.666;2023-11-19T02:47:07;23.67;;;6.40;;
36315;SDS011;22343;50.820;2.666;2023-11-19T02:49:52;27.40;;;5.83;;
36315;SDS011;22343;50.820;2.666;2023-11-19T02:52:37;22.40;;;5.93;;
36315;SDS011;22343;50.820;2.666;2023-11-19T02:55:21;24.53;;;6.47;;
36315;SDS011;22343;50.820;2.666;2023-11-19T02:58:07;30.50;;;6.83;;
36315;SDS011;22343;50.820;2.666;2023-11-19T03:01:03;26.43;;;5.73;;
36315;SDS011;22343;50.820;2.666;2023-11-19T03:03:57;27.60;;;6.40;;
36315;SDS011;22343;50.820;2.666;2023-11-19T03:06:42;25.53;;;6.20;;
36315;SDS011;22343;50.820;2.666;2023-11-19T03:09:26;27.20;;;6.47;;
36315;SDS011;22343;50.820;2.666;2023-11-19T03:12:11;28.60;;;6.10;;
36315;SDS011;22343;50.820;2.666;2023-11-19T03:14:55;26.33;;;6.33;;
36315;SDS011;22343;50.820;2.666;2023-11-19T03:17:40;22.40;;;6.47;;
36315;SDS011;22343;50.820;2.666;2023-11-19T03:20:25;24.87;;;6.43;;
36315;SDS011;22343;50.820;2.666;2023-11-19T03:23:12;24.30;;;5.83;;
36315;SDS011;22343;50.820;2.666;2023-11-19T03:25:56;25.23;;;5.60;;
36315;SDS011;22343;50.820;2.666;2023-11-19T03:28:41;23.50;;;6.47;;
36315;SDS011;22343;50.820;2.666;2023-11-19T03:31:25;22.73;;;5.83;;
36315;SDS011;22343;50.820;2.666;2023-11-19T03:34:09;24.67;;;6.53;;
36315;SDS011;22343;50.820;2.666;2023-11-19T03:36:54;24.40;;;5.87;;
36315;SDS011;22343;50.820;2.666;2023-11-19T03:39:39;25.07;;;6.50;;
36315;SDS011;22343;50.820;2.666;2023-11-19T03:42:24;25.60;;;6.47;;
36315;SDS011;22343;50.820;2.666;2023-11-19T03:45:09;26.87;;;6.53;;
36315;SDS011;22343;50.820;2.666;2023-11-19T03:47:53;26.17;;;6.23;;
36315;SDS011;22343;50.820;2.666;2023-11-19T03:50:37;30.07;;;6.93;;
36315;SDS011;22343;50.820;2.666;2023-11-19T03:53:22;28.40;;;6.43;;
36315;SDS011;22343;50.820;2.666;2023-11-19T03:56:08;23.40;;;6.43;;
36315;SDS011;22343;50.820;2.666;2023-11-19T03:58:53;28.97;;;6.43;;
36315;SDS011;22343;50.820;2.666;2023-11-19T04:01:38;31.17;;;7.07;;
36315;SDS011;22343;50.820;2.666;2023-11-19T04:04:22;28.07;;;6.80;;
36315;SDS011;22343;50.820;2.666;2023-11-19T04:07:06;29.30;;;6.40;;
36315;SDS011;22343;50.820;2.666;2023-11-19T04:09:51;28.73;;;6.67;;
36315;SDS011;22343;50.820;2.666;2023-11-19T04:12:35;22.40;;;6.10;;
36315;SDS011;22343;50.820;2.666;2023-11-19T04:15:20;24.90;;;6.43;;
36315;SDS011;22343;50.820;2.666;2023-11-19T04:18:04;23.03;;;5.87;;
36315;SDS011;22343;50.820;2.666;2023-11-19T04:20:48;30.37;;;6.33;;
36315;SDS011;22343;50.820;2.666;2023-11-19T04:23:33;24.37;;;6.40;;
36315;SDS011;22343;50.820;2.666;2023-11-19T04:26:18;27.13;;;5.50;;
36315;SDS011;22343;50.820;2.666;2023-11-19T04:29:02;31.83;;;6.87;;
36315;SDS011;22343;50.820;2.666;2023-11-19T04:31:47;25.37;;;6.60;;
36315;SDS011;22343;50.820;2.666;2023-11-19T04:34:31;27.30;;;5.90;;
36315;SDS011;22343;50.820;2.666;2023-11-19T04:37:15;26.07;;;7.00;;
36315;SDS011;22343;50.820;2.666;2023-11-19T04:39:59;24.13;;;5.60;;
36315;SDS011;22343;50.820;2.666;2023-11-19T04:42:44;26.57;;;5.93;;
36315;SDS011;22343;50.820;2.666;2023-11-19T04:45:28;23.90;;;5.40;;
36315;SDS011;22343;50.820;2.666;2023-11-19T04:48:13;27.13;;;6.07;;
36315;SDS011;22343;50.820;2.666;2023-11-19T04:50:57;23.63;;;5.57;;
36315;SDS011;22343;50.820;2.666;2023-11-19T04:53:42;20.47;;;5.87;;
36315;SDS011;22343;50.820;2.666;2023-11-19T04:56:26;23.03;;;5.97;;
36315;SDS011;22343;50.820;2.666;2023-11-19T04:59:10;22.17;;;5.67;;
36315;SDS011;22343;50.820;2.666;2023-11-19T05:01:54;24.20;;;5.83;;
36315;SDS011;22343;50.820;2.666;2023-11-19T05:04:42;24.17;;;6.00;;
36315;SDS011;22343;50.820;2.666;2023-11-19T05:07:28;25.37;;;6.03;;
36315;SDS011;22343;50.820;2.666;2023-11-19T05:10:12;19.20;;;5.23;;
36315;SDS011;22343;50.820;2.666;2023-11-19T05:12:56;22.17;;;5.50;;
36315;SDS011;22343;50.820;2.666;2023-11-19T05:15:40;20.77;;;5.67;;
36315;SDS011;22343;50.820;2.666;2023-11-19T05:18:25;30.23;;;5.83;;
36315;SDS011;22343;50.820;2.666;2023-11-19T05:21:09;26.47;;;5.77;;
36315;SDS011;22343;50.820;2.666;2023-11-19T05:23:53;30.77;;;6.17;;
36315;SDS011;22343;50.820;2.666;2023-11-19T05:26:38;24.10;;;5.47;;
36315;SDS011;22343;50.820;2.666;2023-11-19T05:29:22;25.07;;;5.83;;
36315;SDS011;22343;50.820;2.666;2023-11-19T05:32:06;25.27;;;5.93;;
36315;SDS011;22343;50.820;2.666;2023-11-19T05:34:51;24.63;;;5.50;;
36315;SDS011;22343;50.820;2.666;2023-11-19T05:37:35;24.13;;;5.90;;
36315;SDS011;22343;50.820;2.666;2023-11-19T05:40:19;28.07;;;5.57;;
36315;SDS011;22343;50.820;2.666;2023-11-19T05:43:04;23.07;;;5.83;;
36315;SDS011;22343;50.820;2.666;2023-11-19T05:45:49;23.77;;;5.30;;
36315;SDS011;22343;50.820;2.666;2023-11-19T05:48:33;25.83;;;6.13;;
36315;SDS011;22343;50.820;2.666;2023-11-19T05:51:17;28.40;;;6.33;;
36315;SDS011;22343;50.820;2.666;2023-11-19T05:54:02;24.70;;;6.40;;
36315;SDS011;22343;50.820;2.666;2023-11-19T05:56:47;23.80;;;5.70;;
36315;SDS011;22343;50.820;2.666;2023-11-19T05:59:32;23.13;;;5.67;;
36315;SDS011;22343;50.820;2.666;2023-11-19T06:02:17;23.53;;;5.73;;
36315;SDS011;22343;50.820;2.666;2023-11-19T06:05:01;22.10;;;5.90;;
36315;SDS011;22343;50.820;2.666;2023-11-19T06:07:45;28.53;;;6.87;;
36315;SDS011;22343;50.820;2.666;2023-11-19T06:10:30;33.63;;;6.90;;
36315;SDS011;22343;50.820;2.666;2023-11-19T06:13:17;28.57;;;5.93;;
36315;SDS011;22343;50.820;2.666;2023-11-19T06:16:01;28.70;;;6.50;;
36315;SDS011;22343;50.820;2.666;2023-11-19T06:18:47;28.87;;;6.27;;
36315;SDS011;22343;50.820;2.666;2023-11-19T06:21:31;26.57;;;6.73;;
36315;SDS011;22343;50.820;2.666;2023-11-19T06:24:15;29.97;;;6.10;;
36315;SDS011;22343;50.820;2.666;2023-11-19T06:27:00;27.37;;;6.60;;
36315;SDS011;22343;50.820;2.666;2023-11-19T06:29:44;30.63;;;7.10;;
36315;SDS011;22343;50.820;2.666;2023-11-19T06:32:28;30.80;;;6.53;;
36315;SDS011;22343;50.820;2.666;2023-11-19T06:35:13;33.27;;;5.83;;
36315;SDS011;22343;50.820;2.666;2023-11-19T06:37:57;31.50;;;6.97;;
36315;SDS011;22343;50.820;2.666;2023-11-19T06:40:43;25.20;;;6.93;;
36315;SDS011;22343;50.820;2.666;2023-11-19T06:43:27;24.00;;;6.67;;
36315;SDS011;22343;50.820;2.666;2023-11-19T06:46:18;29.07;;;6.97;;
36315;SDS011;22343;50.820;2.666;2023-11-19T06:49:03;29.43;;;6.87;;
36315;SDS011;22343;50.820;2.666;2023-11-19T06:51:47;29.97;;;7.17;;
36315;SDS011;22343;50.820;2.666;2023-11-19T06:54:32;32.07;;;6.53;;
36315;SDS011;22343;50.820;2.666;2023-11-19T06:57:16;32.60;;;6.87;;
36315;SDS011;22343;50.820;2.666;2023-11-19T07:00:00;31.50;;;6.40;;
36315;SDS011;22343;50.820;2.666;2023-11-19T07:02:45;31.50;;;6.87;;
36315;SDS011;22343;50.820;2.666;2023-11-19T07:05:29;32.17;;;6.60;;
36315;SDS011;22343;50.820;2.666;2023-11-19T07:08:14;34.27;;;7.13;;
36315;SDS011;22343;50.820;2.666;2023-11-19T07:10:58;26.60;;;6.50;;
36315;SDS011;22343;50.820;2.666;2023-11-19T07:13:42;25.50;;;6.67;;
36315;SDS011;22343;50.820;2.666;2023-11-19T07:16:27;23.37;;;5.47;;
36315;SDS011;22343;50.820;2.666;2023-11-19T07:19:12;27.03;;;6.70;;
36315;SDS011;22343;50.820;2.666;2023-11-19T07:21:56;28.50;;;5.83;;
36315;SDS011;22343;50.820;2.666;2023-11-19T07:24:40;31.37;;;6.90;;
36315;SDS011;22343;50.820;2.666;2023-11-19T07:27:25;23.87;;;5.90;;
36315;SDS011;22343;50.820;2.666;2023-11-19T07:30:09;26.10;;;6.37;;
36315;SDS011;22343;50.820;2.666;2023-11-19T07:32:54;24.07;;;6.40;;
36315;SDS011;22343;50.820;2.666;2023-11-19T07:35:38;22.00;;;5.73;;
36315;SDS011;22343;50.820;2.666;2023-11-19T07:38:25;28.30;;;6.20;;
36315;SDS011;22343;50.820;2.666;2023-11-19T07:41:09;24.60;;;6.80;;
36315;SDS011;22343;50.820;2.666;2023-11-19T07:43:56;28.40;;;6.90;;
36315;SDS011;22343;50.820;2.666;2023-11-19T07:46:41;24.70;;;6.47;;
36315;SDS011;22343;50.820;2.666;2023-11-19T07:49:26;32.80;;;6.97;;
36315;SDS011;22343;50.820;2.666;2023-11-19T07:52:10;30.93;;;6.63;;
36315;SDS011;22343;50.820;2.666;2023-11-19T07:54:55;24.23;;;6.77;;
36315;SDS011;22343;50.820;2.666;2023-11-19T07:57:39;29.00;;;6.30;;
36315;SDS011;22343;50.820;2.666;2023-11-19T08:00:24;29.23;;;5.90;;
36315;SDS011;22343;50.820;2.666;2023-11-19T08:03:08;28.43;;;6.30;;
36315;SDS011;22343;50.820;2.666;2023-11-19T08:05:55;23.10;;;6.10;;
36315;SDS011;22343;50.820;2.666;2023-11-19T08:08:41;26.97;;;5.93;;
36315;SDS011;22343;50.820;2.666;2023-11-19T08:11:25;24.20;;;6.13;;
36315;SDS011;22343;50.820;2.666;2023-11-19T08:14:09;26.47;;;6.03;;
36315;SDS011;22343;50.820;2.666;2023-11-19T08:16:54;28.80;;;6.57;;
36315;SDS011;22343;50.820;2.666;2023-11-19T08:19:38;29.80;;;5.93;;
36315;SDS011;22343;50.820;2.666;2023-11-19T08:22:23;28.23;;;6.00;;
36315;SDS011;22343;50.820;2.666;2023-11-19T08:25:07;33.63;;;7.33;;
36315;SDS011;22343;50.820;2.666;2023-11-19T08:27:52;27.90;;;6.00;;
36315;SDS011;22343;50.820;2.666;2023-11-19T08:30:36;24.93;;;5.93;;
36315;SDS011;22343;50.820;2.666;2023-11-19T08:33:20;28.50;;;6.17;;
36315;SDS011;22343;50.820;2.666;2023-11-19T08:36:06;26.27;;;6.13;;
36315;SDS011;22343;50.820;2.666;2023-11-19T08:38:51;28.73;;;6.40;;
36315;SDS011;22343;50.820;2.666;2023-11-19T08:41:36;24.57;;;6.20;;
36315;SDS011;22343;50.820;2.666;2023-11-19T08:44:21;26.10;;;6.30;;
36315;SDS011;22343;50.820;2.666;2023-11-19T08:47:06;24.40;;;6.57;;
36315;SDS011;22343;50.820;2.666;2023-11-19T08:49:51;24.77;;;6.27;;
36315;SDS011;22343;50.820;2.666;2023-11-19T08:52:36;28.37;;;6.90;;
36315;SDS011;22343;50.820;2.666;2023-11-19T08:55:20;26.53;;;6.17;;
36315;SDS011;22343;50.820;2.666;2023-11-19T08:58:05;25.87;;;6.00;;
36315;SDS011;22343;50.820;2.666;2023-11-19T09:00:49;27.50;;;6.37;;
36315;SDS011;22343;50.820;2.666;2023-11-19T09:03:33;22.63;;;6.43;;
36315;SDS011;22343;50.820;2.666;2023-11-19T09:06:18;29.30;;;5.77;;
36315;SDS011;22343;50.820;2.666;2023-11-19T09:09:02;21.47;;;6.20;;
36315;SDS011;22343;50.820;2.666;2023-11-19T09:11:49;25.33;;;6.40;;
36315;SDS011;22343;50.820;2.666;2023-11-19T09:14:34;26.57;;;5.80;;
36315;SDS011;22343;50.820;2.666;2023-11-19T09:17:18;24.13;;;6.27;;
36315;SDS011;22343;50.820;2.666;2023-11-19T09:20:02;23.53;;;6.10;;
36315;SDS011;22343;50.820;2.666;2023-11-19T09:22:47;28.00;;;6.27;;
36315;SDS011;22343;50.820;2.666;2023-11-19T09:25:32;37.37;;;6.83;;
36315;SDS011;22343;50.820;2.666;2023-11-19T09:28:18;29.73;;;6.80;;
36315;SDS011;22343;50.820;2.666;2023-11-19T09:31:02;26.77;;;6.80;;
36315;SDS011;22343;50.820;2.666;2023-11-19T09:33:50;24.77;;;6.90;;
36315;SDS011;22343;50.820;2.666;2023-11-19T09:36:34;31.00;;;6.20;;
36315;SDS011;22343;50.820;2.666;2023-11-19T09:39:18;28.03;;;6.70;;
36315;SDS011;22343;50.820;2.666;2023-11-19T09:42:04;27.87;;;5.83;;
36315;SDS011;22343;50.820;2.666;2023-11-19T09:44:49;25.13;;;5.77;;
36315;SDS011;22343;50.820;2.666;2023-11-19T09:47:35;24.47;;;6.37;;
36315;SDS011;22343;50.820;2.666;2023-11-19T09:50:19;30.57;;;6.90;;
36315;SDS011;22343;50.820;2.666;2023-11-19T09:53:04;26.73;;;6.13;;
36315;SDS011;22343;50.820;2.666;2023-11-19T09:55:49;22.40;;;5.53;;
36315;SDS011;22343;50.820;2.666;2023-11-19T09:58:35;28.20;;;6.53;;
36315;SDS011;22343;50.820;2.666;2023-11-19T10:01:20;22.67;;;5.83;;
36315;SDS011;22343;50.820;2.666;2023-11-19T10:04:04;26.43;;;5.73;;
36315;SDS011;22343;50.820;2.666;2023-11-19T10:06:51;29.10;;;6.17;;
36315;SDS011;22343;50.820;2.666;2023-11-19T10:09:36;32.33;;;6.70;;
36315;SDS011;22343;50.820;2.666;2023-11-19T10:12:20;29.03;;;6.83;;
36315;SDS011;22343;50.820;2.666;2023-11-19T10:15:04;29.80;;;6.50;;
36315;SDS011;22343;50.820;2.666;2023-11-19T10:17:51;27.80;;;6.30;;
36315;SDS011;22343;50.820;2.666;2023-11-19T10:20:41;28.20;;;6.07;;
36315;SDS011;22343;50.820;2.666;2023-11-19T10:23:27;25.77;;;6.67;;
36315;SDS011;22343;50.820;2.666;2023-11-19T10:26:11;30.50;;;6.47;;
36315;SDS011;22343;50.820;2.666;2023-11-19T10:28:56;28.37;;;6.70;;
36315;SDS011;22343;50.820;2.666;2023-11-19T10:31:40;24.40;;;5.80;;
36315;SDS011;22343;50.820;2.666;2023-11-19T10:34:28;29.07;;;6.37;;
36315;SDS011;22343;50.820;2.666;2023-11-19T10:37:29;25.23;;;5.90;;
36315;SDS011;22343;50.820;2.666;2023-11-19T10:40:16;29.23;;;6.37;;
36315;SDS011;22343;50.820;2.666;2023-11-19T10:43:02;26.43;;;5.70;;
36315;SDS011;22343;50.820;2.666;2023-11-19T10:45:47;26.03;;;5.70;;
36315;SDS011;22343;50.820;2.666;2023-11-19T10:48:31;21.40;;;5.50;;
36315;SDS011;22343;50.820;2.666;2023-11-19T10:51:19;26.57;;;6.13;;
36315;SDS011;22343;50.820;2.666;2023-11-19T10:54:07;24.83;;;5.87;;
36315;SDS011;22343;50.820;2.666;2023-11-19T10:56:54;25.17;;;5.87;;
36315;SDS011;22343;50.820;2.666;2023-11-19T10:59:39;24.57;;;5.70;;
36315;SDS011;22343;50.820;2.666;2023-11-19T11:02:25;20.57;;;5.63;;
36315;SDS011;22343;50.820;2.666;2023-11-19T11:05:12;21.77;;;5.27;;
36315;SDS011;22343;50.820;2.666;2023-11-19T11:07:56;23.90;;;6.47;;
36315;SDS011;22343;50.820;2.666;2023-11-19T11:11:15;20.03;;;5.30;;
36315;SDS011;22343;50.820;2.666;2023-11-19T11:13:54;20.73;;;5.53;;
36315;SDS011;22343;50.820;2.666;2023-11-19T11:16:40;24.27;;;5.87;;
36315;SDS011;22343;50.820;2.666;2023-11-19T11:19:26;21.43;;;5.37;;
36315;SDS011;22343;50.820;2.666;2023-11-19T11:22:11;21.03;;;5.43;;
36315;SDS011;22343;50.820;2.666;2023-11-19T11:25:00;23.33;;;6.20;;
36315;SDS011;22343;50.820;2.666;2023-11-19T11:37:37;17.83;;;4.90;;
36315;SDS011;22343;50.820;2.666;2023-11-19T11:40:26;23.47;;;5.27;;
36315;SDS011;22343;50.820;2.666;2023-11-19T11:49:27;23.37;;;5.50;;
36315;SDS011;22343;50.820;2.666;2023-11-19T11:52:13;19.90;;;5.63;;
36315;SDS011;22343;50.820;2.666;2023-11-19T11:55:06;21.87;;;5.90;;
36315;SDS011;22343;50.820;2.666;2023-11-19T11:57:53;21.53;;;6.17;;
36315;SDS011;22343;50.820;2.666;2023-11-19T12:00:39;24.00;;;5.77;;
36315;SDS011;22343;50.820;2.666;2023-11-19T12:03:26;23.93;;;5.73;;
36315;SDS011;22343;50.820;2.666;2023-11-19T12:06:12;23.60;;;6.13;;
36315;SDS011;22343;50.820;2.666;2023-11-19T12:09:00;31.13;;;6.67;;
36315;SDS011;22343;50.820;2.666;2023-11-19T12:11:47;19.37;;;5.73;;
36315;SDS011;22343;50.820;2.666;2023-11-19T12:17:50;20.07;;;5.50;;
36315;SDS011;22343;50.820;2.666;2023-11-19T12:20:35;31.13;;;5.87;;
36315;SDS011;22343;50.820;2.666;2023-11-19T12:23:22;22.33;;;5.67;;
36315;SDS011;22343;50.820;2.666;2023-11-19T12:26:06;23.93;;;7.13;;
36315;SDS011;22343;50.820;2.666;2023-11-19T12:28:58;21.70;;;5.60;;
36315;SDS011;22343;50.820;2.666;2023-11-19T12:31:54;23.43;;;5.03;;
36315;SDS011;22343;50.820;2.666;2023-11-19T12:34:39;23.77;;;5.87;;
36315;SDS011;22343;50.820;2.666;2023-11-19T12:37:23;25.70;;;6.10;;
36315;SDS011;22343;50.820;2.666;2023-11-19T12:40:12;24.27;;;5.73;;
36315;SDS011;22343;50.820;2.666;2023-11-19T12:43:01;23.03;;;5.63;;
36315;SDS011;22343;50.820;2.666;2023-11-19T12:45:45;22.03;;;5.37;;
36315;SDS011;22343;50.820;2.666;2023-11-19T12:48:29;18.30;;;5.43;;
36315;SDS011;22343;50.820;2.666;2023-11-19T12:51:14;18.80;;;5.40;;
36315;SDS011;22343;50.820;2.666;2023-11-19T12:54:00;20.10;;;5.40;;
36315;SDS011;22343;50.820;2.666;2023-11-19T12:56:53;22.47;;;5.60;;
36315;SDS011;22343;50.820;2.666;2023-11-19T12:59:38;22.60;;;6.23;;
36315;SDS011;22343;50.820;2.666;2023-11-19T13:02:22;19.67;;;5.03;;
36315;SDS011;22343;50.820;2.666;2023-11-19T13:05:23;22.90;;;5.53;;
36315;SDS011;22343;50.820;2.666;2023-11-19T13:08:10;17.40;;;5.13;;
36315;SDS011;22343;50.820;2.666;2023-11-19T13:10:56;19.30;;;5.50;;
36315;SDS011;22343;50.820;2.666;2023-11-19T13:13:57;19.37;;;5.07;;
36315;SDS011;22343;50.820;2.666;2023-11-19T13:16:43;21.77;;;5.33;;
36315;SDS011;22343;50.820;2.666;2023-11-19T13:19:29;18.43;;;4.87;;
36315;SDS011;22343;50.820;2.666;2023-11-19T13:22:13;19.33;;;5.07;;
36315;SDS011;22343;50.820;2.666;2023-11-19T13:24:58;23.93;;;4.70;;
36315;SDS011;22343;50.820;2.666;2023-11-19T13:27:42;21.83;;;5.43;;
36315;SDS011;22343;50.820;2.666;2023-11-19T13:30:29;23.67;;;6.50;;
36315;SDS011;22343;50.820;2.666;2023-11-19T13:33:14;22.13;;;5.63;;
36315;SDS011;22343;50.820;2.666;2023-11-19T13:35:59;22.67;;;5.97;;
36315;SDS011;22343;50.820;2.666;2023-11-19T13:38:49;17.93;;;5.37;;
36315;SDS011;22343;50.820;2.666;2023-11-19T13:41:34;24.90;;;5.60;;
36315;SDS011;22343;50.820;2.666;2023-11-19T13:44:18;23.60;;;6.27;;
36315;SDS011;22343;50.820;2.666;2023-11-19T13:47:02;26.10;;;6.10;;
36315;SDS011;22343;50.820;2.666;2023-11-19T13:49:47;22.63;;;5.90;;
36315;SDS011;22343;50.820;2.666;2023-11-19T13:52:31;24.10;;;6.07;;
36315;SDS011;22343;50.820;2.666;2023-11-19T13:55:16;30.40;;;6.67;;
36315;SDS011;22343;50.820;2.666;2023-11-19T13:58:00;23.53;;;6.07;;
36315;SDS011;22343;50.820;2.666;2023-11-19T14:00:45;22.77;;;5.43;;
36315;SDS011;22343;50.820;2.666;2023-11-19T14:03:29;21.57;;;6.70;;
36315;SDS011;22343;50.820;2.666;2023-11-19T14:06:13;22.80;;;5.27;;
36315;SDS011;22343;50.820;2.666;2023-11-19T14:08:58;23.07;;;5.73;;
36315;SDS011;22343;50.820;2.666;2023-11-19T14:11:42;24.63;;;6.10;;
36315;SDS011;22343;50.820;2.666;2023-11-19T14:14:27;19.03;;;4.97;;
36315;SDS011;22343;50.820;2.666;2023-11-19T14:17:12;17.90;;;4.87;;
36315;SDS011;22343;50.820;2.666;2023-11-19T14:19:56;20.60;;;5.47;;
36315;SDS011;22343;50.820;2.666;2023-11-19T14:22:44;21.80;;;5.60;;
36315;SDS011;22343;50.820;2.666;2023-11-19T14:25:29;23.33;;;5.73;;
36315;SDS011;22343;50.820;2.666;2023-11-19T14:28:13;25.07;;;5.97;;
36315;SDS011;22343;50.820;2.666;2023-11-19T14:30:58;18.97;;;5.60;;
36315;SDS011;22343;50.820;2.666;2023-11-19T14:33:42;21.77;;;4.87;;
36315;SDS011;22343;50.820;2.666;2023-11-19T14:36:27;20.17;;;5.43;;
36315;SDS011;22343;50.820;2.666;2023-11-19T14:39:11;18.40;;;4.90;;
36315;SDS011;22343;50.820;2.666;2023-11-19T14:41:55;17.30;;;4.53;;
36315;SDS011;22343;50.820;2.666;2023-11-19T14:44:42;16.00;;;4.30;;
36315;SDS011;22343;50.820;2.666;2023-11-19T14:47:27;19.77;;;4.77;;
36315;SDS011;22343;50.820;2.666;2023-11-19T14:50:13;18.20;;;4.53;;
36315;SDS011;22343;50.820;2.666;2023-11-19T14:52:57;14.10;;;3.53;;
36315;SDS011;22343;50.820;2.666;2023-11-19T14:55:42;16.67;;;3.80;;
36315;SDS011;22343;50.820;2.666;2023-11-19T14:58:26;18.87;;;4.73;;
36315;SDS011;22343;50.820;2.666;2023-11-19T15:01:12;16.37;;;4.63;;
36315;SDS011;22343;50.820;2.666;2023-11-19T15:03:56;19.70;;;4.30;;
36315;SDS011;22343;50.820;2.666;2023-11-19T15:06:40;18.07;;;4.60;;
36315;SDS011;22343;50.820;2.666;2023-11-19T15:09:25;11.93;;;3.87;;
36315;SDS011;22343;50.820;2.666;2023-11-19T15:12:09;14.37;;;4.30;;
36315;SDS011;22343;50.820;2.666;2023-11-19T15:14:54;14.13;;;4.97;;
36315;SDS011;22343;50.820;2.666;2023-11-19T15:17:39;15.67;;;3.90;;
36315;SDS011;22343;50.820;2.666;2023-11-19T15:20:24;16.07;;;3.93;;
36315;SDS011;22343;50.820;2.666;2023-11-19T15:23:08;14.90;;;4.10;;
36315;SDS011;22343;50.820;2.666;2023-11-19T15:25:53;15.37;;;4.40;;
36315;SDS011;22343;50.820;2.666;2023-11-19T15:28:37;12.83;;;3.77;;
36315;SDS011;22343;50.820;2.666;2023-11-19T15:31:22;17.53;;;4.30;;
36315;SDS011;22343;50.820;2.666;2023-11-19T15:34:06;14.60;;;3.90;;
36315;SDS011;22343;50.820;2.666;2023-11-19T15:36:51;18.93;;;4.97;;
36315;SDS011;22343;50.820;2.666;2023-11-19T15:39:35;18.60;;;4.77;;
36315;SDS011;22343;50.820;2.666;2023-11-19T15:42:20;15.17;;;4.50;;
36315;SDS011;22343;50.820;2.666;2023-11-19T15:45:04;18.50;;;4.43;;
36315;SDS011;22343;50.820;2.666;2023-11-19T15:47:50;17.80;;;4.40;;
36315;SDS011;22343;50.820;2.666;2023-11-19T15:50:34;13.07;;;4.60;;
36315;SDS011;22343;50.820;2.666;2023-11-19T15:53:18;20.43;;;5.70;;
36315;SDS011;22343;50.820;2.666;2023-11-19T15:56:03;19.07;;;5.60;;
36315;SDS011;22343;50.820;2.666;2023-11-19T15:58:47;15.13;;;4.50;;
36315;SDS011;22343;50.820;2.666;2023-11-19T16:01:33;15.33;;;4.90;;
36315;SDS011;22343;50.820;2.666;2023-11-19T16:04:17;21.60;;;4.60;;
36315;SDS011;22343;50.820;2.666;2023-11-19T16:07:02;13.33;;;3.90;;
36315;SDS011;22343;50.820;2.666;2023-11-19T16:09:46;13.20;;;5.03;;
36315;SDS011;22343;50.820;2.666;2023-11-19T16:12:32;15.87;;;4.23;;
36315;SDS011;22343;50.820;2.666;2023-11-19T16:15:16;14.80;;;4.43;;
36315;SDS011;22343;50.820;2.666;2023-11-19T16:18:01;17.53;;;4.90;;
36315;SDS011;22343;50.820;2.666;2023-11-19T16:20:45;16.93;;;3.90;;
36315;SDS011;22343;50.820;2.666;2023-11-19T16:23:30;13.60;;;4.57;;
36315;SDS011;22343;50.820;2.666;2023-11-19T16:26:14;14.60;;;4.13;;
36315;SDS011;22343;50.820;2.666;2023-11-19T16:28:59;16.93;;;4.73;;
36315;SDS011;22343;50.820;2.666;2023-11-19T16:31:43;13.73;;;4.17;;
36315;SDS011;22343;50.820;2.666;2023-11-19T16:34:28;15.37;;;4.93;;
36315;SDS011;22343;50.820;2.666;2023-11-19T16:37:12;14.17;;;4.10;;
36315;SDS011;22343;50.820;2.666;2023-11-19T16:39:58;16.83;;;4.17;;